LS Christine — ZDHW4 — position and weather

sailwx.info

Track history (hours):
 
Tides and Currents Weather Stations Pressure Air Temp Water Temp Dewpoint Dewpoint Depression Visibility Wind Speed Wind Dir Waves Ship Positions

LS Christine

Last reported at 2017-Dec-17 23:45 UTC. Time now 2017-Dec-18 01:30 UTC.
Position N 36°11' W 005°24'.

Length 125 m; draft 5.3 m.

Type: Ship. MMSI: 236379000.

Date/timePositionNaut miles runAvg speedWind from/ knotsBaromVisibWave heightAir tempDewpointWater temp
2017-Dec-17 23:45N 36°11' W 005°24'0 1.4
2017-Dec-17 23:27N 36°10' W 005°25'8 1.2
2017-Dec-17 16:51N 36°03' W 005°22'410.5
2017-Dec-17 16:30N 35°59' W 005°22'713.0
2017-Dec-17 16:00N 35°57' W 005°30'6 0.1
2017-Dec-15 12:17N 36°01' W 005°25'9 0.3
2017-Dec-13 22:56N 36°11' W 005°24'0 0.3
2017-Dec-13 22:30N 36°11' W 005°24'1 0.0
2017-Dec-13 04:39N 36°10' W 005°23'0 0.0
2017-Dec-13 04:18N 36°10' W 005°23'0 0.0
2017-Dec-13 03:57N 36°10' W 005°23'0 0.0
2017-Dec-13 03:24N 36°10' W 005°23'0 0.0
2017-Dec-13 02:49N 36°10' W 005°23'0 0.1
2017-Dec-13 02:21N 36°10' W 005°23'0 0.0
2017-Dec-13 02:00N 36°10' W 005°23'0 0.0
2017-Dec-13 00:15N 36°10' W 005°23'1 0.0
2017-Dec-12 03:29N 36°10' W 005°24'4 7.6
2017-Dec-12 03:00N 36°06' W 005°22'5 9.9
2017-Dec-12 02:31N 36°05' W 005°17'3 5.9
2017-Dec-12 02:00N 36°05' W 005°13'0 0.6
2017-Dec-12 01:30N 36°04' W 005°13'0 0.9
2017-Dec-12 01:00N 36°04' W 005°13'1 1.0
2017-Dec-12 00:30N 36°04' W 005°14'1 1.2
2017-Dec-12 00:00N 36°05' W 005°14'3 5.9
2017-Dec-11 23:30N 36°05' W 005°18'0 0.9
2017-Dec-11 23:00N 36°04' W 005°18'0 0.1
2017-Dec-11 22:30N 36°04' W 005°18'0 0.0
2017-Dec-11 22:00N 36°04' W 005°18'0 0.1
2017-Dec-11 21:30N 36°04' W 005°18'1 1.1
2017-Dec-11 21:00N 36°04' W 005°19'0 0.4
2017-Dec-11 20:30N 36°04' W 005°19'0 0.3
2017-Dec-11 20:00N 36°04' W 005°19'0 0.1
2017-Dec-11 19:30N 36°04' W 005°19'0 0.3
2017-Dec-11 18:59N 36°04' W 005°19'0 0.5
2017-Dec-11 18:28N 36°04' W 005°19'0 0.2
2017-Dec-11 17:43N 36°04' W 005°19'  
Track history (hours):
 
Tides and Currents Weather Stations Pressure Air Temp Water Temp Dewpoint Dewpoint Depression Visibility Wind Speed Wind Dir Waves Ship Positions

LS Christine

Last reported at 2017-Dec-17 23:45 UTC. Time now 2017-Dec-18 01:30 UTC.
Position N 36°11' W 005°24'.

Length 125 m; draft 5.3 m.

Type: Ship. MMSI: 236379000.

Date/timePositionNaut miles runAvg speedWind from/ knotsBaromVisibWave heightAir tempDewpointWater temp
2017-Dec-17 23:45N 36°11' W 005°24'0 1.4
2017-Dec-17 23:27N 36°10' W 005°25'8 1.2
2017-Dec-17 16:51N 36°03' W 005°22'410.5
2017-Dec-17 16:30N 35°59' W 005°22'713.0
2017-Dec-17 16:00N 35°57' W 005°30'6 0.1
2017-Dec-15 12:17N 36°01' W 005°25'9 0.3
2017-Dec-13 22:56N 36°11' W 005°24'0 0.3
2017-Dec-13 22:30N 36°11' W 005°24'1 0.0
2017-Dec-13 04:39N 36°10' W 005°23'0 0.0
2017-Dec-13 04:18N 36°10' W 005°23'0 0.0
2017-Dec-13 03:57N 36°10' W 005°23'0 0.0
2017-Dec-13 03:24N 36°10' W 005°23'0 0.0
2017-Dec-13 02:49N 36°10' W 005°23'0 0.1
2017-Dec-13 02:21N 36°10' W 005°23'0 0.0
2017-Dec-13 02:00N 36°10' W 005°23'0 0.0
2017-Dec-13 00:15N 36°10' W 005°23'1 0.0
2017-Dec-12 03:29N 36°10' W 005°24'4 7.6
2017-Dec-12 03:00N 36°06' W 005°22'5 9.9
2017-Dec-12 02:31N 36°05' W 005°17'3 5.9
2017-Dec-12 02:00N 36°05' W 005°13'0 0.6
2017-Dec-12 01:30N 36°04' W 005°13'0 0.9
2017-Dec-12 01:00N 36°04' W 005°13'1 1.0
2017-Dec-12 00:30N 36°04' W 005°14'1 1.2
2017-Dec-12 00:00N 36°05' W 005°14'3 5.9
2017-Dec-11 23:30N 36°05' W 005°18'0 0.9
2017-Dec-11 23:00N 36°04' W 005°18'0 0.1
2017-Dec-11 22:30N 36°04' W 005°18'0 0.0
2017-Dec-11 22:00N 36°04' W 005°18'0 0.1
2017-Dec-11 21:30N 36°04' W 005°18'1 1.1
2017-Dec-11 21:00N 36°04' W 005°19'0 0.4
2017-Dec-11 20:30N 36°04' W 005°19'0 0.3
2017-Dec-11 20:00N 36°04' W 005°19'0 0.1
2017-Dec-11 19:30N 36°04' W 005°19'0 0.3
2017-Dec-11 18:59N 36°04' W 005°19'0 0.5
2017-Dec-11 18:28N 36°04' W 005°19'0 0.2
2017-Dec-11 17:43N 36°04' W 005°19'  

Dump ship's entire track history